createdAt,value
2023-01-08T00:00:08.344Z,1.53
2023-01-08T00:02:42.700Z,1.60
2023-01-08T00:05:12.523Z,1.20
2023-01-08T00:07:41.543Z,1.50
2023-01-08T00:10:11.060Z,1.30
2023-01-08T00:12:40.141Z,1.40
2023-01-08T00:15:09.848Z,1.43
2023-01-08T00:17:38.845Z,1.60
2023-01-08T00:20:10.339Z,1.40
2023-01-08T00:22:39.438Z,1.53
2023-01-08T00:25:09.563Z,1.67
2023-01-08T00:27:38.656Z,1.57
2023-01-08T00:30:08.655Z,1.47
2023-01-08T00:32:37.703Z,1.63
2023-01-08T00:35:09.433Z,1.70
2023-01-08T00:37:38.442Z,1.13
2023-01-08T00:40:09.154Z,1.70
2023-01-08T00:42:38.180Z,1.70
2023-01-08T00:45:08.656Z,1.80
2023-01-08T00:47:37.725Z,1.70
2023-01-08T00:50:07.482Z,1.60
2023-01-08T00:52:37.910Z,1.10
2023-01-08T00:55:08.007Z,1.67
2023-01-08T00:57:38.127Z,1.77
2023-01-08T01:00:09.969Z,1.70
2023-01-08T01:02:41.467Z,1.47
2023-01-08T01:05:13.329Z,1.60
2023-01-08T01:07:44.319Z,1.63
2023-01-08T01:10:18.148Z,1.70
2023-01-08T01:12:47.228Z,1.50
2023-01-08T01:15:18.376Z,1.37
2023-01-08T01:17:47.939Z,1.60
2023-01-08T01:20:18.002Z,1.70
2023-01-08T01:22:48.536Z,1.77
2023-01-08T01:25:18.034Z,1.60
2023-01-08T01:27:47.157Z,1.83
2023-01-08T01:30:16.273Z,1.77
2023-01-08T01:32:45.250Z,1.50
2023-01-08T01:35:14.286Z,1.57
2023-01-08T01:37:43.300Z,1.73
2023-01-08T01:40:14.129Z,1.50
2023-01-08T01:42:44.087Z,1.70
2023-01-08T01:45:21.016Z,1.40
2023-01-08T01:47:55.489Z,1.70
2023-01-08T01:50:29.238Z,1.83
2023-01-08T01:53:02.702Z,1.40
2023-01-08T01:55:34.831Z,1.60
2023-01-08T01:58:09.576Z,1.70
2023-01-08T02:00:39.225Z,1.80
2023-01-08T02:03:09.403Z,1.70
2023-01-08T02:05:47.626Z,1.60
2023-01-08T02:08:22.811Z,1.73
2023-01-08T02:10:59.613Z,1.40
2023-01-08T02:13:34.668Z,1.73
2023-01-08T02:16:12.597Z,1.57
2023-01-08T02:18:47.318Z,1.80
2023-01-08T02:21:22.419Z,1.83
2023-01-08T02:24:00.719Z,1.50
2023-01-08T02:26:32.767Z,1.80
2023-01-08T02:29:05.753Z,1.47
2023-01-08T02:31:36.507Z,1.43
2023-01-08T02:34:06.078Z,1.40
2023-01-08T02:36:39.411Z,1.70
2023-01-08T02:39:30.797Z,1.40
2023-01-08T02:42:12.111Z,2.00
2023-01-08T02:44:55.594Z,1.10
2023-01-08T02:47:30.507Z,1.57
2023-01-08T02:50:11.925Z,1.83
2023-01-08T02:52:49.453Z,1.80
2023-01-08T02:55:21.913Z,1.50
2023-01-08T02:57:53.046Z,1.70
2023-01-08T03:00:23.411Z,1.50
2023-01-08T03:02:59.730Z,1.40
2023-01-08T03:05:29.677Z,1.57
2023-01-08T03:07:58.693Z,1.40
2023-01-08T03:10:31.270Z,1.60
2023-01-08T03:13:04.924Z,1.73
2023-01-08T03:15:39.410Z,1.47
2023-01-08T03:18:14.709Z,1.20
2023-01-08T03:20:45.745Z,1.77
2023-01-08T03:23:16.686Z,1.60
2023-01-08T03:25:47.805Z,1.30
2023-01-08T03:28:23.931Z,1.70
2023-01-08T03:30:55.256Z,1.70
2023-01-08T03:33:26.659Z,1.40
2023-01-08T03:35:57.930Z,1.63
2023-01-08T03:38:30.599Z,1.73
2023-01-08T03:41:06.350Z,1.70
2023-01-08T03:43:36.796Z,1.70
2023-01-08T03:46:10.588Z,1.63
2023-01-08T03:48:40.414Z,1.77
2023-01-08T03:51:10.377Z,1.47
2023-01-08T03:53:39.652Z,1.53
2023-01-08T03:56:09.299Z,1.93
2023-01-08T03:58:39.670Z,1.60
2023-01-08T04:01:08.813Z,1.37
2023-01-08T04:03:38.027Z,1.50
2023-01-08T04:06:07.513Z,1.50
2023-01-08T04:08:36.563Z,1.70
2023-01-08T04:11:05.721Z,1.63
2023-01-08T04:13:34.733Z,1.50
2023-01-08T04:16:06.144Z,1.57
2023-01-08T04:18:35.496Z,1.47
2023-01-08T04:21:04.599Z,1.80
2023-01-08T04:23:33.925Z,1.97
2023-01-08T04:26:06.148Z,1.50
2023-01-08T04:28:35.538Z,1.50
2023-01-08T04:31:08.807Z,1.30
2023-01-08T04:33:38.046Z,1.50
2023-01-08T04:36:07.624Z,1.40
2023-01-08T04:38:36.656Z,1.77
2023-01-08T04:41:07.580Z,2.00
2023-01-08T04:43:36.597Z,1.60
2023-01-08T04:46:08.539Z,1.60
2023-01-08T04:48:38.039Z,1.80
2023-01-08T04:51:07.563Z,1.67
2023-01-08T04:53:39.256Z,1.90
2023-01-08T04:56:10.961Z,1.60
2023-01-08T04:58:40.822Z,1.83
2023-01-08T05:01:17.254Z,1.60
2023-01-08T05:03:46.355Z,1.70
2023-01-08T05:06:15.453Z,1.60
2023-01-08T05:08:44.512Z,1.53
2023-01-08T05:11:13.580Z,1.90
2023-01-08T05:13:42.617Z,1.43
2023-01-08T05:16:11.918Z,1.77
2023-01-08T05:18:42.451Z,1.67
2023-01-08T05:21:11.738Z,1.60
2023-01-08T05:23:41.037Z,1.80
2023-01-08T05:26:11.089Z,1.37
2023-01-08T05:28:40.169Z,1.57
2023-01-08T05:31:09.281Z,1.33
2023-01-08T05:33:38.611Z,1.60
2023-01-08T05:36:11.733Z,1.70
2023-01-08T05:38:41.485Z,1.70
2023-01-08T05:41:11.763Z,1.83
2023-01-08T05:43:40.856Z,1.63
2023-01-08T05:46:10.038Z,1.83
2023-01-08T05:48:39.181Z,1.53
2023-01-08T05:51:09.705Z,1.60
2023-01-08T05:53:38.805Z,2.10
2023-01-08T05:56:10.074Z,1.83
2023-01-08T05:58:39.508Z,1.80
2023-01-08T06:01:11.206Z,1.50
2023-01-08T06:03:40.451Z,1.70
2023-01-08T06:06:13.517Z,1.70
2023-01-08T06:08:42.512Z,1.60
2023-01-08T06:11:13.503Z,1.47
2023-01-08T06:13:44.836Z,1.87
2023-01-08T06:16:14.544Z,1.90
2023-01-08T06:18:43.675Z,1.60
2023-01-08T06:21:14.302Z,1.87
2023-01-08T06:23:43.358Z,1.50
2023-01-08T06:26:12.403Z,1.60
2023-01-08T06:28:41.544Z,1.53
2023-01-08T06:31:10.758Z,1.30
2023-01-08T06:33:39.853Z,1.70
2023-01-08T06:36:09.639Z,1.83
2023-01-08T06:38:40.248Z,1.53
2023-01-08T06:41:11.680Z,1.80
2023-01-08T06:43:41.104Z,1.40
2023-01-08T06:46:11.423Z,1.60
2023-01-08T06:48:40.518Z,1.30
2023-01-08T06:51:10.012Z,1.60
2023-01-08T06:53:40.370Z,1.53
2023-01-08T06:56:10.982Z,1.43
2023-01-08T06:58:40.335Z,1.60
2023-01-08T07:01:13.412Z,1.50
2023-01-08T07:03:42.740Z,1.70
2023-01-08T07:06:16.900Z,1.57
2023-01-08T07:08:47.955Z,1.60
2023-01-08T07:11:17.423Z,1.43
2023-01-08T07:13:46.497Z,1.80
2023-01-08T07:16:16.503Z,1.77
2023-01-08T07:18:46.715Z,1.83
2023-01-08T07:21:16.184Z,1.70
2023-01-08T07:23:48.814Z,1.97
2023-01-08T07:26:18.363Z,2.17
2023-01-08T07:28:47.413Z,2.10
2023-01-08T07:31:16.490Z,1.60
2023-01-08T07:33:45.575Z,1.53
2023-01-08T07:36:16.403Z,1.30
2023-01-08T07:38:46.791Z,1.60
2023-01-08T07:41:15.801Z,1.90
2023-01-08T07:43:44.841Z,1.40
2023-01-08T07:46:13.917Z,1.50
2023-01-08T07:48:43.031Z,1.60
2023-01-08T07:51:12.204Z,1.80
2023-01-08T07:53:41.254Z,1.60
2023-01-08T07:56:12.288Z,1.80
2023-01-08T07:58:41.496Z,1.53
2023-01-08T08:01:12.498Z,1.60
2023-01-08T08:03:42.488Z,1.53
2023-01-08T08:06:11.872Z,1.70
2023-01-08T08:08:42.286Z,1.83
2023-01-08T08:11:13.029Z,1.53
2023-01-08T08:13:44.867Z,1.70
2023-01-08T08:16:14.299Z,1.70
2023-01-08T08:18:43.350Z,1.80
2023-01-08T08:21:12.381Z,1.83
2023-01-08T08:23:41.375Z,1.67
2023-01-08T08:26:11.833Z,2.23
2023-01-08T08:28:40.920Z,1.40
2023-01-08T08:31:10.122Z,1.50
2023-01-08T08:33:39.261Z,1.30
2023-01-08T08:36:09.528Z,2.10
2023-01-08T08:38:38.767Z,1.90
2023-01-08T08:41:08.142Z,2.10
2023-01-08T08:43:38.544Z,1.67
2023-01-08T08:46:07.571Z,1.57
2023-01-08T08:48:36.605Z,1.57
2023-01-08T08:51:06.011Z,1.80
2023-01-08T08:53:35.063Z,2.30
2023-01-08T08:56:04.163Z,1.87
2023-01-08T08:58:33.260Z,1.80
2023-01-08T09:01:05.181Z,2.03
2023-01-08T09:03:34.297Z,2.10
2023-01-08T09:06:03.434Z,1.73
2023-01-08T09:08:32.673Z,2.20
2023-01-08T09:11:04.145Z,2.37
2023-01-08T09:13:33.377Z,2.07
2023-01-08T09:16:04.175Z,2.00
2023-01-08T09:18:33.478Z,2.50
2023-01-08T09:21:07.200Z,1.63
2023-01-08T09:23:36.631Z,1.90
2023-01-08T09:26:06.798Z,1.80
2023-01-08T09:28:35.896Z,1.93
2023-01-08T09:31:06.421Z,2.10
2023-01-08T09:33:35.468Z,1.83
2023-01-08T09:36:04.733Z,2.17
2023-01-08T09:38:33.797Z,2.00
2023-01-08T09:41:06.200Z,1.80
2023-01-08T09:43:38.566Z,1.77
2023-01-08T09:46:10.985Z,1.90
2023-01-08T09:48:42.063Z,2.13
2023-01-08T09:51:13.773Z,1.83
2023-01-08T09:53:44.166Z,1.80
2023-01-08T09:56:15.807Z,1.53
2023-01-08T09:58:50.366Z,1.97
2023-01-08T10:01:23.857Z,1.87
2023-01-08T10:03:58.737Z,1.80
2023-01-08T10:06:27.820Z,1.83
2023-01-08T10:08:56.894Z,1.70
2023-01-08T10:11:28.506Z,1.93
2023-01-08T10:13:59.159Z,1.53
2023-01-08T10:16:35.491Z,1.63
2023-01-08T10:19:05.385Z,1.50
2023-01-08T10:21:40.574Z,1.70
2023-01-08T10:24:09.829Z,1.90
2023-01-08T10:26:39.812Z,1.93
2023-01-08T10:29:11.079Z,2.00
2023-01-08T10:31:51.163Z,1.20
2023-01-08T10:34:28.177Z,1.37
2023-01-08T10:36:57.880Z,1.40
2023-01-08T10:39:29.641Z,1.53
2023-01-08T10:42:05.368Z,1.27
2023-01-08T10:44:35.831Z,1.50
2023-01-08T10:47:07.181Z,1.97
2023-01-08T10:49:41.763Z,1.30
2023-01-08T10:52:28.208Z,1.23
2023-01-08T10:54:57.763Z,1.07
2023-01-08T10:57:28.830Z,1.23
2023-01-08T10:59:58.388Z,1.77
2023-01-08T11:02:39.362Z,1.50
2023-01-08T11:05:11.215Z,1.50
2023-01-08T11:07:40.940Z,0.97
2023-01-08T11:10:23.641Z,1.37
2023-01-08T11:12:58.788Z,1.17
2023-01-08T11:15:38.018Z,1.00
2023-01-08T11:18:17.667Z,1.03
2023-01-08T11:20:47.380Z,1.00
2023-01-08T11:23:22.564Z,1.10
2023-01-08T11:25:58.365Z,1.17
2023-01-08T11:28:39.776Z,1.10
2023-01-08T11:31:15.777Z,1.20
2023-01-08T11:33:49.042Z,1.30
2023-01-08T11:36:24.928Z,1.50
2023-01-08T11:38:54.073Z,1.10
2023-01-08T11:42:02.741Z,1.40
2023-01-08T11:44:45.509Z,1.17
2023-01-08T11:47:23.663Z,1.33
2023-01-08T11:50:14.414Z,1.53
2023-01-08T11:52:52.888Z,1.50
2023-01-08T11:55:45.185Z,1.10
2023-01-08T11:58:24.278Z,1.50
2023-01-08T12:01:16.894Z,1.37
2023-01-08T12:03:48.369Z,1.23
2023-01-08T12:06:36.924Z,1.25
2023-01-08T12:09:16.960Z,1.40
2023-01-08T12:11:52.778Z,1.00
2023-01-08T12:14:38.064Z,1.23
2023-01-08T12:17:20.743Z,1.00
2023-01-08T12:20:05.387Z,1.33
2023-01-08T12:22:46.494Z,1.27
2023-01-08T12:25:27.404Z,1.23
2023-01-08T12:28:07.575Z,0.73
2023-01-08T12:30:51.305Z,0.90
2023-01-08T12:33:31.602Z,0.90
2023-01-08T12:36:04.313Z,1.40
2023-01-08T12:38:37.201Z,1.00
2023-01-08T12:41:10.867Z,1.00
2023-01-08T12:43:49.439Z,0.93
2023-01-08T12:46:19.568Z,0.60
2023-01-08T12:48:51.952Z,0.90
2023-01-08T12:51:29.561Z,0.68
2023-01-08T12:54:09.510Z,0.93
2023-01-08T12:56:47.373Z,0.80
2023-01-08T12:59:25.303Z,0.60
2023-01-08T13:01:59.524Z,0.55
2023-01-08T13:04:28.682Z,0.60
2023-01-08T13:07:02.892Z,0.70
2023-01-08T13:09:34.089Z,0.70
2023-01-08T13:12:03.133Z,0.70
2023-01-08T13:14:43.348Z,0.70
2023-01-08T13:17:21.263Z,0.80
2023-01-08T13:19:55.776Z,1.00
2023-01-08T13:22:29.971Z,0.80
2023-01-08T13:25:29.712Z,0.90
2023-01-08T13:27:59.628Z,0.97
2023-01-08T13:30:40.580Z,0.90
2023-01-08T13:33:38.305Z,2.00
2023-01-08T13:36:22.986Z,1.07
2023-01-08T13:39:06.989Z,1.20
2023-01-08T13:41:40.249Z,1.17
2023-01-08T13:44:23.142Z,0.90
2023-01-08T13:46:56.280Z,1.00
2023-01-08T13:49:31.260Z,0.90
2023-01-08T13:52:00.443Z,0.53
2023-01-08T13:54:38.145Z,0.90
2023-01-08T13:57:15.499Z,0.93
2023-01-08T13:59:50.811Z,0.80
2023-01-08T14:02:26.573Z,0.60
2023-01-08T14:04:56.450Z,0.93
2023-01-08T14:07:25.773Z,0.90
2023-01-08T14:09:55.525Z,0.90
2023-01-08T14:12:26.800Z,0.97
2023-01-08T14:14:59.794Z,0.90
2023-01-08T14:17:33.678Z,1.03
2023-01-08T14:20:02.972Z,1.33
2023-01-08T14:22:34.797Z,1.10
2023-01-08T14:25:07.659Z,0.83
2023-01-08T14:27:38.047Z,0.87
2023-01-08T14:30:17.689Z,0.73
2023-01-08T14:32:46.911Z,1.60
2023-01-08T14:35:20.005Z,1.00
2023-01-08T14:37:49.123Z,1.10
2023-01-08T14:40:28.662Z,1.53
2023-01-08T14:43:03.268Z,1.00
2023-01-08T14:45:34.341Z,1.10
2023-01-08T14:48:10.274Z,1.07
2023-01-08T14:50:42.387Z,0.87
2023-01-08T14:53:20.645Z,1.20
2023-01-08T14:55:52.346Z,0.80
2023-01-08T14:58:25.989Z,0.80
2023-01-08T15:00:58.171Z,0.73
2023-01-08T15:03:35.537Z,1.00
2023-01-08T15:06:05.502Z,0.70
2023-01-08T15:08:37.308Z,1.73
2023-01-08T15:11:08.972Z,0.87
2023-01-08T15:13:39.689Z,1.13
2023-01-08T15:16:12.027Z,1.00
2023-01-08T15:18:46.738Z,1.37
2023-01-08T15:21:20.739Z,1.53
2023-01-08T15:23:52.726Z,1.80
2023-01-08T15:26:23.228Z,4.10
2023-01-08T15:28:57.029Z,2.90
2023-01-08T15:31:28.518Z,1.90
2023-01-08T15:33:58.578Z,1.73
2023-01-08T15:36:28.195Z,1.93
2023-01-08T15:38:57.411Z,2.03
2023-01-08T15:41:44.535Z,1.60
2023-01-08T15:44:15.272Z,5.03
2023-01-08T15:46:44.304Z,2.70
2023-01-08T15:49:13.830Z,2.97
2023-01-08T15:51:46.059Z,3.27
2023-01-08T15:54:15.690Z,2.53
2023-01-08T15:56:44.977Z,1.50
2023-01-08T15:59:15.418Z,1.70
2023-01-08T16:01:44.690Z,1.53
2023-01-08T16:04:13.896Z,1.90
2023-01-08T16:06:42.934Z,1.67
2023-01-08T16:09:11.963Z,2.10
2023-01-08T16:11:44.030Z,1.53
2023-01-08T16:14:14.701Z,1.63
2023-01-08T16:16:43.911Z,2.07
2023-01-08T16:19:12.993Z,1.50
2023-01-08T16:21:46.826Z,1.90
2023-01-08T16:24:16.074Z,2.03
2023-01-08T16:26:45.383Z,1.97
2023-01-08T16:29:15.807Z,1.47
2023-01-08T16:31:47.156Z,1.90
2023-01-08T16:34:17.076Z,2.00
2023-01-08T16:36:46.372Z,2.30
2023-01-08T16:39:15.677Z,2.07
2023-01-08T16:41:44.965Z,2.07
2023-01-08T16:44:21.560Z,2.50
2023-01-08T16:46:51.293Z,3.17
2023-01-08T16:49:20.453Z,2.63
2023-01-08T16:51:50.070Z,2.77
2023-01-08T16:54:19.616Z,2.97
2023-01-08T16:56:49.757Z,3.00
2023-01-08T16:59:23.688Z,3.03
2023-01-08T17:01:53.464Z,2.63
2023-01-08T17:04:22.978Z,3.03
2023-01-08T17:06:52.205Z,3.37
2023-01-08T17:09:21.444Z,2.97
2023-01-08T17:11:50.718Z,3.00
2023-01-08T17:14:21.289Z,3.07
2023-01-08T17:16:50.550Z,3.10
2023-01-08T17:19:20.749Z,3.40
2023-01-08T17:21:51.360Z,3.43
2023-01-08T17:24:20.687Z,2.60
2023-01-08T17:26:49.888Z,3.63
2023-01-08T17:29:20.507Z,4.13
2023-01-08T17:31:49.924Z,2.70
2023-01-08T17:34:19.101Z,3.97
2023-01-08T17:36:48.595Z,3.27
2023-01-08T17:39:17.661Z,2.47
2023-01-08T17:42:07.252Z,2.77
2023-01-08T17:44:38.143Z,2.23
2023-01-08T17:47:07.490Z,3.10
2023-01-08T17:49:37.401Z,2.00
2023-01-08T17:52:07.142Z,2.00
2023-01-08T17:54:36.805Z,2.30
2023-01-08T17:57:07.084Z,3.53
2023-01-08T17:59:37.991Z,2.17
2023-01-08T18:02:07.472Z,2.23
2023-01-08T18:04:37.001Z,2.00
2023-01-08T18:07:06.698Z,1.80
2023-01-08T18:09:36.898Z,1.93
2023-01-08T18:12:06.822Z,1.77
2023-01-08T18:14:38.893Z,1.30
2023-01-08T18:17:08.337Z,1.53
2023-01-08T18:19:37.402Z,1.40
2023-01-08T18:22:06.466Z,1.20
2023-01-08T18:24:58.358Z,1.37
2023-01-08T18:27:27.777Z,1.33
2023-01-08T18:29:58.196Z,1.63
2023-01-08T18:32:27.439Z,1.30
2023-01-08T18:34:56.625Z,1.13
2023-01-08T18:37:26.685Z,1.53
2023-01-08T18:40:11.548Z,1.10
2023-01-08T18:42:51.537Z,1.03
2023-01-08T18:45:24.388Z,1.30
2023-01-08T18:48:05.515Z,1.23
2023-01-08T18:50:40.829Z,1.40
2023-01-08T18:53:10.639Z,1.60
2023-01-08T18:55:39.692Z,1.40
2023-01-08T18:58:08.769Z,1.33
2023-01-08T19:00:39.313Z,1.37
2023-01-08T19:03:09.018Z,1.47
2023-01-08T19:05:42.019Z,1.90
2023-01-08T19:08:11.469Z,1.90
2023-01-08T19:10:41.521Z,2.00
2023-01-08T19:13:11.155Z,1.90
2023-01-08T19:15:44.412Z,1.67
2023-01-08T19:18:13.915Z,1.43
2023-01-08T19:20:50.565Z,1.80
2023-01-08T19:23:21.500Z,2.57
2023-01-08T19:25:52.693Z,2.70
2023-01-08T19:28:24.683Z,2.50
2023-01-08T19:30:59.167Z,1.90
2023-01-08T19:33:28.517Z,1.47
2023-01-08T19:36:05.654Z,1.50
2023-01-08T19:38:34.735Z,1.20
2023-01-08T19:41:04.252Z,2.17
2023-01-08T19:43:44.509Z,1.23
2023-01-08T19:46:18.155Z,1.47
2023-01-08T19:48:47.563Z,1.20
2023-01-08T19:51:17.527Z,1.10
2023-01-08T19:53:46.654Z,1.80
2023-01-08T19:56:16.409Z,1.50
2023-01-08T19:58:45.929Z,2.10
2023-01-08T20:01:19.057Z,2.03
2023-01-08T20:03:49.199Z,1.73
2023-01-08T20:06:20.776Z,1.73
2023-01-08T20:08:50.846Z,1.80
2023-01-08T20:11:20.163Z,1.00
2023-01-08T20:13:52.172Z,1.50
2023-01-08T20:16:24.330Z,1.30
2023-01-08T20:18:57.897Z,1.40
2023-01-08T20:21:27.095Z,1.60
2023-01-08T20:23:59.150Z,1.60
2023-01-08T20:26:29.950Z,1.53
2023-01-08T20:28:59.834Z,1.40
2023-01-08T20:31:32.825Z,1.50
2023-01-08T20:34:03.974Z,1.97
2023-01-08T20:36:35.561Z,1.90
2023-01-08T20:39:07.546Z,1.80
2023-01-08T20:41:36.891Z,1.70
2023-01-08T20:44:06.880Z,2.07
2023-01-08T20:46:39.104Z,1.50
2023-01-08T20:49:11.673Z,1.87
2023-01-08T20:51:46.282Z,1.70
2023-01-08T20:54:20.519Z,1.80
2023-01-08T20:56:50.142Z,2.27
2023-01-08T20:59:19.273Z,2.07
2023-01-08T21:01:49.865Z,2.00
2023-01-08T21:04:19.706Z,1.77
2023-01-08T21:06:49.151Z,2.40
2023-01-08T21:09:18.242Z,2.33
2023-01-08T21:11:47.581Z,2.10
2023-01-08T21:14:16.649Z,2.33
2023-01-08T21:16:45.762Z,1.90
2023-01-08T21:19:16.255Z,1.90
2023-01-08T21:21:45.711Z,2.50
2023-01-08T21:24:15.281Z,2.10
2023-01-08T21:26:46.642Z,1.67
2023-01-08T21:29:16.903Z,2.07
2023-01-08T21:31:46.088Z,2.10
2023-01-08T21:34:16.583Z,2.13
2023-01-08T21:36:45.627Z,1.77
2023-01-08T21:39:14.824Z,2.17
2023-01-08T21:42:01.348Z,2.30
2023-01-08T21:44:47.956Z,2.07
2023-01-08T21:47:18.667Z,1.67
2023-01-08T21:49:49.265Z,1.90
2023-01-08T21:52:35.916Z,2.17
2023-01-08T21:55:05.892Z,1.70
2023-01-08T21:57:39.968Z,2.13
2023-01-08T22:00:10.936Z,2.13
2023-01-08T22:02:40.289Z,2.67
2023-01-08T22:05:11.031Z,1.87
2023-01-08T22:07:40.133Z,1.97
2023-01-08T22:10:10.265Z,2.40
2023-01-08T22:12:40.163Z,1.90
2023-01-08T22:15:10.655Z,2.23
2023-01-08T22:17:39.930Z,1.90
2023-01-08T22:20:11.819Z,2.23
2023-01-08T22:22:42.444Z,2.10
2023-01-08T22:25:11.833Z,2.00
2023-01-08T22:27:40.970Z,2.10
2023-01-08T22:30:11.388Z,1.67
2023-01-08T22:32:40.430Z,1.70
2023-01-08T22:35:11.241Z,1.70
2023-01-08T22:37:41.775Z,1.60
2023-01-08T22:40:12.358Z,1.63
2023-01-08T22:42:41.382Z,1.77
2023-01-08T22:45:10.934Z,2.10
2023-01-08T22:47:39.975Z,1.70
2023-01-08T22:50:11.731Z,1.10
2023-01-08T22:52:40.731Z,1.60
2023-01-08T22:55:10.753Z,1.33
2023-01-08T22:57:39.819Z,1.80
2023-01-08T23:00:11.492Z,1.53
2023-01-08T23:02:40.594Z,1.57
2023-01-08T23:05:11.477Z,1.23
2023-01-08T23:07:40.500Z,1.53
2023-01-08T23:10:10.838Z,1.63
2023-01-08T23:12:39.891Z,1.23
2023-01-08T23:15:10.189Z,1.30
2023-01-08T23:17:51.477Z,1.50
2023-01-08T23:20:24.822Z,1.60
2023-01-08T23:22:54.301Z,1.50
2023-01-08T23:25:23.618Z,1.73
2023-01-08T23:27:52.646Z,1.20
2023-01-08T23:30:21.930Z,1.57
2023-01-08T23:32:51.023Z,1.60
2023-01-08T23:35:20.054Z,1.30
2023-01-08T23:37:50.476Z,1.23
2023-01-08T23:40:20.066Z,1.60
2023-01-08T23:42:49.115Z,1.30
2023-01-08T23:45:18.338Z,1.03
2023-01-08T23:47:47.374Z,1.40
2023-01-08T23:50:16.637Z,1.30
2023-01-08T23:52:45.674Z,1.80
2023-01-08T23:55:16.126Z,1.70
2023-01-08T23:57:45.219Z,1.27
